sensor_id;sensor_type;location;lat;lon;timestamp;pressure;altitude;pressure_sealevel;temperature;humidity
70434;BME280;57876;47.792;12.960;2023-04-28T00:00:50;96821.06;;;14.35;51.60
70434;BME280;57876;47.792;12.960;2023-04-28T00:03:15;96835.19;;;14.37;51.34
70434;BME280;57876;47.792;12.960;2023-04-28T00:05:39;96815.63;;;14.35;51.52
70434;BME280;57876;47.792;12.960;2023-04-28T00:08:04;96828.13;;;14.36;51.09
70434;BME280;57876;47.792;12.960;2023-04-28T00:10:30;96826.22;;;14.36;51.16
70434;BME280;57876;47.792;12.960;2023-04-28T00:12:55;96828.94;;;14.36;51.29
70434;BME280;57876;47.792;12.960;2023-04-28T00:15:19;96814.03;;;14.34;51.40
70434;BME280;57876;47.792;12.960;2023-04-28T00:17:44;96818.84;;;14.37;51.36
70434;BME280;57876;47.792;12.960;2023-04-28T00:20:09;96811.78;;;14.36;51.27
70434;BME280;57876;47.792;12.960;2023-04-28T00:22:34;96817.22;;;14.36;51.57
70434;BME280;57876;47.792;12.960;2023-04-28T00:24:58;96814.84;;;14.34;51.32
70434;BME280;57876;47.792;12.960;2023-04-28T00:27:23;96805.03;;;14.33;51.16
70434;BME280;57876;47.792;12.960;2023-04-28T00:29:47;96809.41;;;14.34;51.23
70434;BME280;57876;47.792;12.960;2023-04-28T00:32:13;96810.81;;;14.31;51.23
70434;BME280;57876;47.792;12.960;2023-04-28T00:34:37;96809.41;;;14.34;51.32
70434;BME280;57876;47.792;12.960;2023-04-28T00:37:05;96801.53;;;14.32;51.34
70434;BME280;57876;47.792;12.960;2023-04-28T00:39:29;96804.56;;;14.31;51.34
70434;BME280;57876;47.792;12.960;2023-04-28T00:41:56;96797.22;;;14.31;51.22
70434;BME280;57876;47.792;12.960;2023-04-28T00:44:23;96809.69;;;14.32;51.40
70434;BME280;57876;47.792;12.960;2023-04-28T00:46:48;96801.53;;;14.32;51.71
70434;BME280;57876;47.792;12.960;2023-04-28T00:49:17;96801.22;;;14.34;51.01
70434;BME280;57876;47.792;12.960;2023-04-28T00:51:41;96792.88;;;14.30;51.53
70434;BME280;57876;47.792;12.960;2023-04-28T00:54:06;96796.09;;;14.32;50.95
70434;BME280;57876;47.792;12.960;2023-04-28T00:56:31;96791.78;;;14.31;51.47
70434;BME280;57876;47.792;12.960;2023-04-28T00:58:58;96792.88;;;14.30;51.04
70434;BME280;57876;47.792;12.960;2023-04-28T01:01:22;96793.19;;;14.29;51.25
70434;BME280;57876;47.792;12.960;2023-04-28T01:03:47;96796.88;;;14.33;51.17
70434;BME280;57876;47.792;12.960;2023-04-28T01:06:13;96798.00;;;14.32;51.24
70434;BME280;57876;47.792;12.960;2023-04-28T01:08:38;96792.06;;;14.30;51.36
70434;BME280;57876;47.792;12.960;2023-04-28T01:11:02;96787.41;;;14.30;51.53
70434;BME280;57876;47.792;12.960;2023-04-28T01:13:27;96790.47;;;14.29;51.48
70434;BME280;57876;47.792;12.960;2023-04-28T01:15:52;96780.38;;;14.29;51.27
70434;BME280;57876;47.792;12.960;2023-04-28T01:18:17;96773.34;;;14.28;51.37
70434;BME280;57876;47.792;12.960;2023-04-28T01:20:42;96775.44;;;14.31;51.32
70434;BME280;57876;47.792;12.960;2023-04-28T01:23:15;96771.72;;;14.27;51.33
70434;BME280;57876;47.792;12.960;2023-04-28T01:25:40;96781.97;;;14.30;51.01
70434;BME280;57876;47.792;12.960;2023-04-28T01:28:05;96773.34;;;14.28;51.07
70434;BME280;57876;47.792;12.960;2023-04-28T01:30:30;96769.50;;;14.29;51.27
70434;BME280;57876;47.792;12.960;2023-04-28T01:32:55;96781.81;;;14.27;51.61
70434;BME280;57876;47.792;12.960;2023-04-28T01:35:19;96771.72;;;14.27;51.36
70434;BME280;57876;47.792;12.960;2023-04-28T01:37:44;96774.94;;;14.29;51.51
70434;BME280;57876;47.792;12.960;2023-04-28T01:40:09;96773.81;;;14.30;51.29
70434;BME280;57876;47.792;12.960;2023-04-28T01:42:34;96779.25;;;14.30;51.28
70434;BME280;57876;47.792;12.960;2023-04-28T01:44:59;96777.38;;;14.31;51.26
70434;BME280;57876;47.792;12.960;2023-04-28T01:47:23;96776.53;;;14.30;51.59
70434;BME280;57876;47.792;12.960;2023-04-28T01:49:48;96774.16;;;14.29;51.65
70434;BME280;57876;47.792;12.960;2023-04-28T01:52:13;96770.63;;;14.28;51.36
70434;BME280;57876;47.792;12.960;2023-04-28T01:54:38;96783.91;;;14.30;51.13
70434;BME280;57876;47.792;12.960;2023-04-28T01:57:02;96780.38;;;14.29;51.29
70434;BME280;57876;47.792;12.960;2023-04-28T01:59:27;96771.44;;;14.29;51.16
70434;BME280;57876;47.792;12.960;2023-04-28T02:01:52;96765.97;;;14.29;51.27
70434;BME280;57876;47.792;12.960;2023-04-28T02:04:16;96762.94;;;14.30;51.05
70434;BME280;57876;47.792;12.960;2023-04-28T02:06:41;96750.75;;;14.28;51.25
70434;BME280;57876;47.792;12.960;2023-04-28T02:09:05;96759.25;;;14.26;51.48
70434;BME280;57876;47.792;12.960;2023-04-28T02:11:30;96757.03;;;14.28;51.34
70434;BME280;57876;47.792;12.960;2023-04-28T02:13:54;96750.47;;;14.29;51.29
70434;BME280;57876;47.792;12.960;2023-04-28T02:16:19;96743.44;;;14.28;51.15
70434;BME280;57876;47.792;12.960;2023-04-28T02:18:43;96749.66;;;14.29;51.19
70434;BME280;57876;47.792;12.960;2023-04-28T02:21:09;96744.22;;;14.29;51.26
70434;BME280;57876;47.792;12.960;2023-04-28T02:23:34;96751.88;;;14.27;51.00
70434;BME280;57876;47.792;12.960;2023-04-28T02:26:00;96747.25;;;14.27;51.24
70434;BME280;57876;47.792;12.960;2023-04-28T02:28:24;96748.88;;;14.28;51.21
70434;BME280;57876;47.792;12.960;2023-04-28T02:30:49;96751.09;;;14.26;51.54
70434;BME280;57876;47.792;12.960;2023-04-28T02:33:13;96745.16;;;14.24;51.38
70434;BME280;57876;47.792;12.960;2023-04-28T02:35:38;96748.38;;;14.26;51.47
70434;BME280;57876;47.792;12.960;2023-04-28T02:38:06;96748.38;;;14.26;51.53
70434;BME280;57876;47.792;12.960;2023-04-28T02:40:31;96744.03;;;14.25;51.31
70434;BME280;57876;47.792;12.960;2023-04-28T02:42:55;96739.69;;;14.24;51.20
70434;BME280;57876;47.792;12.960;2023-04-28T02:45:20;96733.97;;;14.26;51.27
70434;BME280;57876;47.792;12.960;2023-04-28T02:47:47;96745.31;;;14.28;51.48
70434;BME280;57876;47.792;12.960;2023-04-28T02:50:12;96739.69;;;14.24;51.42
70434;BME280;57876;47.792;12.960;2023-04-28T02:52:36;96741.78;;;14.27;51.49
70434;BME280;57876;47.792;12.960;2023-04-28T02:55:01;96730.41;;;14.25;51.02
70434;BME280;57876;47.792;12.960;2023-04-28T02:57:27;96733.63;;;14.27;51.27
70434;BME280;57876;47.792;12.960;2023-04-28T02:59:51;96734.44;;;14.28;51.13
70434;BME280;57876;47.792;12.960;2023-04-28T03:02:15;96733.97;;;14.26;51.05
70434;BME280;57876;47.792;12.960;2023-04-28T03:04:41;96729.31;;;14.26;51.27
70434;BME280;57876;47.792;12.960;2023-04-28T03:07:06;96737.47;;;14.26;51.08
70434;BME280;57876;47.792;12.960;2023-04-28T03:09:30;96735.06;;;14.25;51.40
70434;BME280;57876;47.792;12.960;2023-04-28T03:11:55;96736.69;;;14.26;51.21
70434;BME280;57876;47.792;12.960;2023-04-28T03:14:19;96731.25;;;14.26;50.98
70434;BME280;57876;47.792;12.960;2023-04-28T03:16:47;96729.31;;;14.26;51.05
70434;BME280;57876;47.792;12.960;2023-04-28T03:19:11;96717.31;;;14.27;51.06
70434;BME280;57876;47.792;12.960;2023-04-28T03:21:41;96724.50;;;14.23;51.41
70434;BME280;57876;47.792;12.960;2023-04-28T03:24:08;96729.63;;;14.25;51.17
70434;BME280;57876;47.792;12.960;2023-04-28T03:26:32;96725.81;;;14.26;51.56
70434;BME280;57876;47.792;12.960;2023-04-28T03:28:57;96733.63;;;14.27;51.37
70434;BME280;57876;47.792;12.960;2023-04-28T03:31:21;96731.25;;;14.26;51.35
70434;BME280;57876;47.792;12.960;2023-04-28T03:33:47;96729.94;;;14.23;51.31
70434;BME280;57876;47.792;12.960;2023-04-28T03:36:11;96738.56;;;14.25;51.11
70434;BME280;57876;47.792;12.960;2023-04-28T03:38:38;96732.66;;;14.23;51.58
70434;BME280;57876;47.792;12.960;2023-04-28T03:41:03;96731.03;;;14.22;51.32
70434;BME280;57876;47.792;12.960;2023-04-28T03:43:27;96734.25;;;14.24;51.08
70434;BME280;57876;47.792;12.960;2023-04-28T03:45:52;96704.97;;;14.21;51.18
70434;BME280;57876;47.792;12.960;2023-04-28T03:48:17;96686.72;;;14.22;51.21
70434;BME280;57876;47.792;12.960;2023-04-28T03:50:42;96694.59;;;14.23;51.17
70434;BME280;57876;47.792;12.960;2023-04-28T03:53:09;96699.53;;;14.21;51.16
70434;BME280;57876;47.792;12.960;2023-04-28T03:55:33;96697.59;;;14.22;51.44
70434;BME280;57876;47.792;12.960;2023-04-28T03:57:58;96710.91;;;14.23;51.05
70434;BME280;57876;47.792;12.960;2023-04-28T04:00:23;96709.78;;;14.24;51.24
70434;BME280;57876;47.792;12.960;2023-04-28T04:02:47;96711.38;;;14.25;51.21
70434;BME280;57876;47.792;12.960;2023-04-28T04:05:12;96713.63;;;14.23;51.20
70434;BME280;57876;47.792;12.960;2023-04-28T04:07:36;96712.00;;;14.22;51.31
70434;BME280;57876;47.792;12.960;2023-04-28T04:10:01;96712.50;;;14.24;51.33
70434;BME280;57876;47.792;12.960;2023-04-28T04:12:26;96712.00;;;14.22;51.24
70434;BME280;57876;47.792;12.960;2023-04-28T04:14:50;96701.44;;;14.21;51.52
70434;BME280;57876;47.792;12.960;2023-04-28T04:17:15;96713.13;;;14.21;51.30
70434;BME280;57876;47.792;12.960;2023-04-28T04:19:39;96707.69;;;14.21;51.45
70434;BME280;57876;47.792;12.960;2023-04-28T04:22:04;96696.00;;;14.21;51.54
70434;BME280;57876;47.792;12.960;2023-04-28T04:24:29;96701.13;;;14.22;51.37
70434;BME280;57876;47.792;12.960;2023-04-28T04:26:59;96701.44;;;14.21;51.00
70434;BME280;57876;47.792;12.960;2023-04-28T04:29:24;96715.84;;;14.21;51.35
70434;BME280;57876;47.792;12.960;2023-04-28T04:31:48;96719.06;;;14.23;51.40
70434;BME280;57876;47.792;12.960;2023-04-28T04:34:13;96713.91;;;14.22;51.27
70434;BME280;57876;47.792;12.960;2023-04-28T04:36:37;96708.47;;;14.22;51.23
70434;BME280;57876;47.792;12.960;2023-04-28T04:39:02;96706.56;;;14.22;50.90
70434;BME280;57876;47.792;12.960;2023-04-28T04:41:26;96713.63;;;14.23;51.14
70434;BME280;57876;47.792;12.960;2023-04-28T04:43:51;96710.09;;;14.23;51.24
70434;BME280;57876;47.792;12.960;2023-04-28T04:46:15;96715.22;;;14.24;51.38
70434;BME280;57876;47.792;12.960;2023-04-28T04:48:39;96711.19;;;14.22;51.16
70434;BME280;57876;47.792;12.960;2023-04-28T04:51:04;96710.09;;;14.23;51.10
70434;BME280;57876;47.792;12.960;2023-04-28T04:53:29;96705.75;;;14.22;51.07
70434;BME280;57876;47.792;12.960;2023-04-28T04:55:53;96710.91;;;14.23;50.97
70434;BME280;57876;47.792;12.960;2023-04-28T04:58:18;96717.94;;;14.24;51.17
70434;BME280;57876;47.792;12.960;2023-04-28T05:00:42;96715.22;;;14.24;51.09
70434;BME280;57876;47.792;12.960;2023-04-28T05:03:07;96722.59;;;14.24;51.01
70434;BME280;57876;47.792;12.960;2023-04-28T05:05:32;96725.31;;;14.24;51.01
70434;BME280;57876;47.792;12.960;2023-04-28T05:07:57;96723.38;;;14.24;51.17
70434;BME280;57876;47.792;12.960;2023-04-28T05:10:23;96723.72;;;14.23;51.16
70434;BME280;57876;47.792;12.960;2023-04-28T05:12:48;96718.56;;;14.21;51.40
70434;BME280;57876;47.792;12.960;2023-04-28T05:15:12;96722.59;;;14.24;50.89
70434;BME280;57876;47.792;12.960;2023-04-28T05:17:36;96723.88;;;14.26;51.29
70434;BME280;57876;47.792;12.960;2023-04-28T05:20:03;96724.38;;;14.28;51.09
70434;BME280;57876;47.792;12.960;2023-04-28T05:22:27;96730.28;;;14.30;51.10
70434;BME280;57876;47.792;12.960;2023-04-28T05:24:52;96735.59;;;14.36;51.26
70434;BME280;57876;47.792;12.960;2023-04-28T05:27:17;96749.72;;;14.38;51.28
70434;BME280;57876;47.792;12.960;2023-04-28T05:29:42;96743.16;;;14.39;51.01
70434;BME280;57876;47.792;12.960;2023-04-28T05:32:06;96751.31;;;14.39;51.25
70434;BME280;57876;47.792;12.960;2023-04-28T05:34:30;96750.22;;;14.40;51.00
70434;BME280;57876;47.792;12.960;2023-04-28T05:36:55;96739.81;;;14.42;51.10
70434;BME280;57876;47.792;12.960;2023-04-28T05:39:19;96741.44;;;14.43;51.14
70434;BME280;57876;47.792;12.960;2023-04-28T05:41:44;96743.03;;;14.44;51.24
70434;BME280;57876;47.792;12.960;2023-04-28T05:44:08;96734.38;;;14.42;51.14
70434;BME280;57876;47.792;12.960;2023-04-28T05:46:33;96730.53;;;14.43;51.08
70434;BME280;57876;47.792;12.960;2023-04-28T05:48:57;96732.13;;;14.44;51.31
70434;BME280;57876;47.792;12.960;2023-04-28T05:51:22;96728.94;;;14.42;51.33
70434;BME280;57876;47.792;12.960;2023-04-28T05:53:46;96728.63;;;14.43;51.04
70434;BME280;57876;47.792;12.960;2023-04-28T05:56:12;96734.25;;;14.47;51.37
70434;BME280;57876;47.792;12.960;2023-04-28T05:58:36;96728.81;;;14.47;51.28
70434;BME280;57876;47.792;12.960;2023-04-28T06:01:01;96713.28;;;14.47;51.35
70434;BME280;57876;47.792;12.960;2023-04-28T06:03:26;96716.81;;;14.48;51.14
70434;BME280;57876;47.792;12.960;2023-04-28T06:05:50;96716.31;;;14.46;51.17
70434;BME280;57876;47.792;12.960;2023-04-28T06:08:15;96710.56;;;14.47;51.23
70434;BME280;57876;47.792;12.960;2023-04-28T06:10:39;96716.81;;;14.48;51.29
70434;BME280;57876;47.792;12.960;2023-04-28T06:13:04;96711.38;;;14.48;51.18
70434;BME280;57876;47.792;12.960;2023-04-28T06:15:29;96708.94;;;14.46;51.28
70434;BME280;57876;47.792;12.960;2023-04-28T06:17:54;96700.31;;;14.44;51.32
70434;BME280;57876;47.792;12.960;2023-04-28T06:20:18;96708.66;;;14.48;51.26
70434;BME280;57876;47.792;12.960;2023-04-28T06:22:43;96704.63;;;14.45;51.20
70434;BME280;57876;47.792;12.960;2023-04-28T06:25:08;96707.34;;;14.45;51.00
70434;BME280;57876;47.792;12.960;2023-04-28T06:27:33;96696.47;;;14.45;51.20
70434;BME280;57876;47.792;12.960;2023-04-28T06:29:58;96706.22;;;14.46;51.35
70434;BME280;57876;47.792;12.960;2023-04-28T06:32:22;96705.91;;;14.48;51.28
70434;BME280;57876;47.792;12.960;2023-04-28T06:34:46;96697.75;;;14.48;51.19
70434;BME280;57876;47.792;12.960;2023-04-28T06:37:11;96701.59;;;14.47;51.15
70434;BME280;57876;47.792;12.960;2023-04-28T06:39:35;96707.84;;;14.47;51.26
70434;BME280;57876;47.792;12.960;2023-04-28T06:42:01;96705.13;;;14.47;51.30
70434;BME280;57876;47.792;12.960;2023-04-28T06:44:26;96700.47;;;14.48;51.16
70434;BME280;57876;47.792;12.960;2023-04-28T06:46:50;96701.28;;;14.48;51.21
70434;BME280;57876;47.792;12.960;2023-04-28T06:49:15;96709.44;;;14.48;51.04
70434;BME280;57876;47.792;12.960;2023-04-28T06:51:39;96700.47;;;14.48;51.37
70434;BME280;57876;47.792;12.960;2023-04-28T06:54:04;96698.88;;;14.47;51.27
70434;BME280;57876;47.792;12.960;2023-04-28T06:56:29;96693.13;;;14.48;51.24
70434;BME280;57876;47.792;12.960;2023-04-28T06:58:54;96687.66;;;14.48;51.66
70434;BME280;57876;47.792;12.960;2023-04-28T07:01:20;96685.75;;;14.49;51.37
70434;BME280;57876;47.792;12.960;2023-04-28T07:03:44;96683.53;;;14.51;51.32
70434;BME280;57876;47.792;12.960;2023-04-28T07:06:09;96688.47;;;14.49;51.17
70434;BME280;57876;47.792;12.960;2023-04-28T07:08:34;96686.78;;;14.53;51.52
70434;BME280;57876;47.792;12.960;2023-04-28T07:11:00;96679.22;;;14.50;51.59
70434;BME280;57876;47.792;12.960;2023-04-28T07:13:27;96681.13;;;14.49;51.18
70434;BME280;57876;47.792;12.960;2023-04-28T07:15:51;96681.59;;;14.51;51.40
70434;BME280;57876;47.792;12.960;2023-04-28T07:18:16;96676.50;;;14.50;51.17
70434;BME280;57876;47.792;12.960;2023-04-28T07:20:40;96675.34;;;14.51;51.27
70434;BME280;57876;47.792;12.960;2023-04-28T07:23:05;96677.28;;;14.50;51.19
70434;BME280;57876;47.792;12.960;2023-04-28T07:25:30;96674.22;;;14.52;51.37
70434;BME280;57876;47.792;12.960;2023-04-28T07:27:54;96669.91;;;14.51;51.30
70434;BME280;57876;47.792;12.960;2023-04-28T07:30:26;96670.25;;;14.49;51.43
70434;BME280;57876;47.792;12.960;2023-04-28T07:32:51;96668.78;;;14.52;51.41
70434;BME280;57876;47.792;12.960;2023-04-28T07:35:15;96679.41;;;14.53;51.36
70434;BME280;57876;47.792;12.960;2023-04-28T07:37:40;96673.16;;;14.53;51.52
70434;BME280;57876;47.792;12.960;2023-04-28T07:40:05;96664.19;;;14.52;51.52
70434;BME280;57876;47.792;12.960;2023-04-28T07:42:46;96654.13;;;14.53;51.46
70434;BME280;57876;47.792;12.960;2023-04-28T07:45:11;96657.63;;;14.53;51.59
70434;BME280;57876;47.792;12.960;2023-04-28T07:47:36;96651.88;;;14.55;51.50
70434;BME280;57876;47.792;12.960;2023-04-28T07:50:03;96647.88;;;14.52;51.77
70434;BME280;57876;47.792;12.960;2023-04-28T07:52:30;96654.13;;;14.53;51.70
70434;BME280;57876;47.792;12.960;2023-04-28T07:54:54;96657.34;;;14.55;51.28
70434;BME280;57876;47.792;12.960;2023-04-28T07:57:19;96653.00;;;14.54;51.43
70434;BME280;57876;47.792;12.960;2023-04-28T07:59:44;96649.47;;;14.53;51.42
70434;BME280;57876;47.792;12.960;2023-04-28T08:02:08;96660.06;;;14.55;51.54
70434;BME280;57876;47.792;12.960;2023-04-28T08:04:36;96653.78;;;14.54;51.32
70434;BME280;57876;47.792;12.960;2023-04-28T08:07:00;96659.22;;;14.54;51.32
70434;BME280;57876;47.792;12.960;2023-04-28T08:09:25;96655.72;;;14.54;51.51
70434;BME280;57876;47.792;12.960;2023-04-28T08:11:50;96652.69;;;14.56;51.75
70434;BME280;57876;47.792;12.960;2023-04-28T08:14:14;96644.81;;;14.54;51.31
70434;BME280;57876;47.792;12.960;2023-04-28T08:16:39;96652.34;;;14.57;51.51
70434;BME280;57876;47.792;12.960;2023-04-28T08:19:04;96649.63;;;14.57;51.36
70434;BME280;57876;47.792;12.960;2023-04-28T08:21:29;96643.41;;;14.57;51.42
70434;BME280;57876;47.792;12.960;2023-04-28T08:23:53;96644.19;;;14.57;51.48
70434;BME280;57876;47.792;12.960;2023-04-28T08:26:40;96650.13;;;14.59;51.54
70434;BME280;57876;47.792;12.960;2023-04-28T08:29:05;96650.47;;;14.58;51.42
70434;BME280;57876;47.792;12.960;2023-04-28T08:31:30;96652.84;;;14.59;51.43
70434;BME280;57876;47.792;12.960;2023-04-28T08:33:54;96647.75;;;14.58;51.45
70434;BME280;57876;47.792;12.960;2023-04-28T08:36:19;96648.03;;;14.56;51.67
70434;BME280;57876;47.792;12.960;2023-04-28T08:38:44;96650.75;;;14.56;51.49
70434;BME280;57876;47.792;12.960;2023-04-28T08:41:09;96651.56;;;14.57;51.55
70434;BME280;57876;47.792;12.960;2023-04-28T08:43:34;96658.28;;;14.59;51.52
70434;BME280;57876;47.792;12.960;2023-04-28T08:46:04;96664.06;;;14.58;51.44
70434;BME280;57876;47.792;12.960;2023-04-28T08:48:33;96655.06;;;14.57;51.54
70434;BME280;57876;47.792;12.960;2023-04-28T08:51:00;96670.81;;;14.60;51.50
70434;BME280;57876;47.792;12.960;2023-04-28T08:53:25;96664.06;;;14.58;51.57
70434;BME280;57876;47.792;12.960;2023-04-28T08:55:54;96677.03;;;14.61;51.33
70434;BME280;57876;47.792;12.960;2023-04-28T08:58:21;96675.41;;;14.60;51.07
70434;BME280;57876;47.792;12.960;2023-04-28T09:00:46;96688.72;;;14.61;51.05
70434;BME280;57876;47.792;12.960;2023-04-28T09:03:11;96690.94;;;14.59;51.63
70434;BME280;57876;47.792;12.960;2023-04-28T09:05:36;96688.72;;;14.61;51.52
70434;BME280;57876;47.792;12.960;2023-04-28T09:08:01;96685.50;;;14.59;51.53
70434;BME280;57876;47.792;12.960;2023-04-28T09:10:26;96686.31;;;14.60;51.79
70434;BME280;57876;47.792;12.960;2023-04-28T09:12:52;96692.56;;;14.60;51.50
70434;BME280;57876;47.792;12.960;2023-04-28T09:15:25;96698.81;;;14.61;51.35
70434;BME280;57876;47.792;12.960;2023-04-28T09:17:51;96694.19;;;14.61;51.65
70434;BME280;57876;47.792;12.960;2023-04-28T09:20:22;96699.63;;;14.61;51.72
70434;BME280;57876;47.792;12.960;2023-04-28T09:22:48;96704.25;;;14.61;51.43
70434;BME280;57876;47.792;12.960;2023-04-28T09:25:13;96699.31;;;14.63;51.70
70434;BME280;57876;47.792;12.960;2023-04-28T09:27:37;96697.25;;;14.68;51.59
70434;BME280;57876;47.792;12.960;2023-04-28T09:30:02;96709.59;;;14.74;51.35
70434;BME280;57876;47.792;12.960;2023-04-28T09:32:27;96706.25;;;14.78;51.87
70434;BME280;57876;47.792;12.960;2023-04-28T09:34:53;96709.97;;;14.82;51.68
70434;BME280;57876;47.792;12.960;2023-04-28T09:37:23;96712.38;;;14.92;51.51
70434;BME280;57876;47.792;12.960;2023-04-28T09:39:52;96712.88;;;14.94;51.39
70434;BME280;57876;47.792;12.960;2023-04-28T09:42:55;96702.00;;;14.94;51.65
70434;BME280;57876;47.792;12.960;2023-04-28T09:45:20;96700.06;;;14.94;51.56
70434;BME280;57876;47.792;12.960;2023-04-28T09:47:45;96692.72;;;14.95;51.82
70434;BME280;57876;47.792;12.960;2023-04-28T09:50:12;96686.13;;;14.96;51.61
70434;BME280;57876;47.792;12.960;2023-04-28T09:52:38;96689.16;;;14.94;51.71
70434;BME280;57876;47.792;12.960;2023-04-28T09:55:05;96679.56;;;14.97;51.79
70434;BME280;57876;47.792;12.960;2023-04-28T09:57:33;96675.75;;;14.98;51.98
70434;BME280;57876;47.792;12.960;2023-04-28T09:59:59;96669.50;;;14.97;52.06
70434;BME280;57876;47.792;12.960;2023-04-28T10:02:24;96671.09;;;14.98;51.71
70434;BME280;57876;47.792;12.960;2023-04-28T10:04:49;96664.06;;;14.97;51.89
70434;BME280;57876;47.792;12.960;2023-04-28T10:07:15;96674.63;;;14.99;52.01
70434;BME280;57876;47.792;12.960;2023-04-28T10:09:40;96666.44;;;14.99;52.07
70434;BME280;57876;47.792;12.960;2023-04-28T10:12:11;96668.06;;;15.00;52.10
70434;BME280;57876;47.792;12.960;2023-04-28T10:14:36;96663.41;;;15.01;52.02
70434;BME280;57876;47.792;12.960;2023-04-28T10:17:00;96655.53;;;14.99;51.99
70434;BME280;57876;47.792;12.960;2023-04-28T10:19:26;96664.84;;;14.98;52.04
70434;BME280;57876;47.792;12.960;2023-04-28T10:22:08;96657.69;;;15.11;52.17
70434;BME280;57876;47.792;12.960;2023-04-28T10:24:58;96651.41;;;15.10;52.40
70434;BME280;57876;47.792;12.960;2023-04-28T10:27:29;96646.28;;;15.09;52.05
70434;BME280;57876;47.792;12.960;2023-04-28T10:30:15;96641.00;;;15.21;52.16
70434;BME280;57876;47.792;12.960;2023-04-28T10:32:40;96643.75;;;15.30;51.82
70434;BME280;57876;47.792;12.960;2023-04-28T10:40:35;96642.31;;;15.32;52.38
70434;BME280;57876;47.792;12.960;2023-04-28T10:43:00;96637.53;;;15.29;52.40
70434;BME280;57876;47.792;12.960;2023-04-28T10:56:06;96635.69;;;15.07;54.27
70434;BME280;57876;47.792;12.960;2023-04-28T10:58:31;96631.22;;;15.11;54.46
70434;BME280;57876;47.792;12.960;2023-04-28T11:06:24;96628.16;;;15.04;54.50
70434;BME280;57876;47.792;12.960;2023-04-28T11:08:52;96623.84;;;15.03;54.30
70434;BME280;57876;47.792;12.960;2023-04-28T11:11:20;96622.88;;;14.99;54.31
70434;BME280;57876;47.792;12.960;2023-04-28T11:13:45;96624.50;;;15.00;54.27
70434;BME280;57876;47.792;12.960;2023-04-28T11:16:15;96621.59;;;14.96;54.33
70434;BME280;57876;47.792;12.960;2023-04-28T11:19:00;96636.31;;;14.95;54.59
70434;BME280;57876;47.792;12.960;2023-04-28T11:21:27;96623.00;;;14.94;54.28
70434;BME280;57876;47.792;12.960;2023-04-28T11:23:52;96638.72;;;14.97;54.32
70434;BME280;57876;47.792;12.960;2023-04-28T11:26:19;96632.81;;;14.95;54.64
70434;BME280;57876;47.792;12.960;2023-04-28T11:28:52;96623.00;;;14.94;54.46
70434;BME280;57876;47.792;12.960;2023-04-28T11:31:18;96629.59;;;14.93;54.27
70434;BME280;57876;47.792;12.960;2023-04-28T11:33:45;96639.69;;;14.92;53.65
70434;BME280;57876;47.792;12.960;2023-04-28T11:38:46;96631.03;;;14.90;54.37
70434;BME280;57876;47.792;12.960;2023-04-28T11:41:12;96641.13;;;14.90;54.18
70434;BME280;57876;47.792;12.960;2023-04-28T11:43:36;96634.53;;;14.91;54.16
70434;BME280;57876;47.792;12.960;2023-04-28T11:46:01;96632.16;;;14.89;54.16
70434;BME280;57876;47.792;12.960;2023-04-28T11:48:25;96624.59;;;14.86;54.14
70434;BME280;57876;47.792;12.960;2023-04-28T11:50:50;96629.25;;;14.86;54.17
70434;BME280;57876;47.792;12.960;2023-04-28T11:53:15;96630.53;;;14.88;54.22
70434;BME280;57876;47.792;12.960;2023-04-28T11:55:39;96636.31;;;14.87;54.26
70434;BME280;57876;47.792;12.960;2023-04-28T11:58:20;96638.22;;;14.86;54.18
70434;BME280;57876;47.792;12.960;2023-04-28T12:01:06;96634.69;;;14.86;54.08
70434;BME280;57876;47.792;12.960;2023-04-28T12:03:30;96632.31;;;14.84;54.18
70434;BME280;57876;47.792;12.960;2023-04-28T12:05:55;96626.84;;;14.84;53.91
70434;BME280;57876;47.792;12.960;2023-04-28T12:08:27;96617.84;;;14.84;54.00
70434;BME280;57876;47.792;12.960;2023-04-28T12:11:08;96621.41;;;14.84;54.02
70434;BME280;57876;47.792;12.960;2023-04-28T12:13:41;96626.03;;;14.84;53.89
70434;BME280;57876;47.792;12.960;2023-04-28T12:16:06;96622.84;;;14.82;54.00
70434;BME280;57876;47.792;12.960;2023-04-28T12:18:31;96613.69;;;14.78;54.00
70434;BME280;57876;47.792;12.960;2023-04-28T12:20:56;96628.28;;;14.82;53.95
70434;BME280;57876;47.792;12.960;2023-04-28T12:23:33;96629.09;;;14.82;53.92
70434;BME280;57876;47.792;12.960;2023-04-28T12:25:58;96631.00;;;14.82;53.94
70434;BME280;57876;47.792;12.960;2023-04-28T12:28:23;96639.78;;;14.79;53.82
70434;BME280;57876;47.792;12.960;2023-04-28T12:31:02;96625.88;;;14.80;54.03
70434;BME280;57876;47.792;12.960;2023-04-28T12:33:27;96646.84;;;14.80;53.81
70434;BME280;57876;47.792;12.960;2023-04-28T12:35:53;96641.41;;;14.80;53.85
70434;BME280;57876;47.792;12.960;2023-04-28T12:38:21;96638.69;;;14.80;53.97
70434;BME280;57876;47.792;12.960;2023-04-28T12:40:46;96632.44;;;14.79;53.61
70434;BME280;57876;47.792;12.960;2023-04-28T12:43:10;96638.19;;;14.78;53.64
70434;BME280;57876;47.792;12.960;2023-04-28T12:45:35;96634.19;;;14.75;53.67
70434;BME280;57876;47.792;12.960;2023-04-28T12:47:59;96632.59;;;14.74;53.82
70434;BME280;57876;47.792;12.960;2023-04-28T12:50:24;96632.75;;;14.78;53.58
70434;BME280;57876;47.792;12.960;2023-04-28T12:52:50;96638.81;;;14.74;53.90
70434;BME280;57876;47.792;12.960;2023-04-28T12:55:14;96636.59;;;14.77;53.44
70434;BME280;57876;47.792;12.960;2023-04-28T12:57:39;96625.72;;;14.77;53.82
70434;BME280;57876;47.792;12.960;2023-04-28T13:00:04;96622.97;;;14.77;53.64
70434;BME280;57876;47.792;12.960;2023-04-28T13:02:29;96625.22;;;14.74;54.13
70434;BME280;57876;47.792;12.960;2023-04-28T13:04:53;96620.91;;;14.73;53.91
70434;BME280;57876;47.792;12.960;2023-04-28T13:07:18;96610.00;;;14.73;53.56